Chişinău, Republica Moldova

03:50 AM EET on octombrie 26, 2014 (GMT +0200)
Chisinau | Change Station
CLOSE
Current Station
Aeroport
Location: Chisinau Airport,
Elevation: 400 ft
Nearby Weather Stations

Elev 400 ft 46.93 °N, 28.93 °E | Updated 20 minutes ago

Clear
Cer senin
27 °F
Feels Like 18 °F
N
9
Vânt variabil Vânt from nord

astăzi
High -- | Low -- °F
--% Chance of Precip.
Ieri
High -- | Low -- °F
Precip. -- inch
6:37 AM 4:57 PM
Semilună în creştere, 5% visible
Presiunea 30.48 inch
Vizibilitatea -9999.0 mile
Nori
Vânt rece 18 °F
Punctul de rouă 19 °F
Umiditatea 74%
Precipitaţii 0.00 inch
Adâncimea zăpezii Not available.
UV Not available.
Pollen Not available.
Calitatea aerului Not available.
Flu Activity Not available.
METAR LUKK 260130Z 01008KT CAVOK M03/M07 Q1032 R08/CLRD65 NOSIG

More Conditions Fewer Conditions

Presiunea 30.48 inch
Vizibilitatea -9999.0 mile
Nori
Vânt rece 18 °F
Punctul de rouă 19 °F
Umiditatea 74%
Precipitaţii 0.00 inch
Adâncimea zăpezii Not available.
UV Not available.
Pollen Not available.
Calitatea aerului Not available.
Flu Activity Not available.
METAR LUKK 260130Z 01008KT CAVOK M03/M07 Q1032 R08/CLRD65 NOSIG

More Conditions Fewer Conditions

10-Day Weather Forecast

Almanac

Astronomie

Oct. 26, 2014 Răsărit Apus
Timpul Actual 6:37 AM EET 4:57 PM EET
Crepusculul Civil 6:06 AM EET 5:29 PM EET
Crepusculul nautic 5:30 AM EET 6:04 PM EET
Răsărit Astronomic 4:55 AM EET 6:40 PM EET
Luna 10:02 AM EET 7:45 PM EET
Durata zilei lumină 11h 23m
Lungimea zilei
10h 20m
Tomorrow will be 3m 8s shorter.
Semilună în creştere, 5% of the Moon is Illuminated
Oct 25
Semilună în creştere
Oct 30
Primul pătrar
Nov 6
Lună plină
Nov 14
Ultimul pătrar
Nov 22
New

Yesterday's Extremes

Country Highs Country Lows

Community

WunderPhotos

Upload Photos

1,765,071 photos uploaded!

Nearby

Calitatea aerului

Not available.

Adâncimea zapezii

Not available.

Earthquake Activity

Oraş Distance Mag. Time & Date
No recent earthquake activity has been reported nearby.
Minimum magnitude displayed is 2.5.

Coastal Water Temperatures

Locul Temperatura
No Stations Reporting

Nearby Weather Stations